Northern Power — A8TL6 — position and weather

sailwx.info

Track history (hours):
 
Tides and Currents Weather Stations Pressure Air Temp Water Temp Dewpoint Dewpoint Depression Visibility Wind Speed Wind Dir Waves Ship Positions

Northern Power

Last reported at 2017-May-04 07:25 UTC. Time now 2017-May-29 02:02 UTC.
Position S 19°21' E 057°42'.
Warning: this ship's position is 24 days out of date.

Length 264 m; draft 11.2 m.

Type: Cargo ship. MMSI: 636091835.

Date/timePositionNaut miles runAvg speedWind from/ knotsBaromVisibWave heightAir tempDewpointWater temp
2017-May-04 07:25S 19°21' E 057°42'817.8
2017-May-04 07:00S 19°29' E 057°42'918.1
2017-May-04 06:31S 19°38' E 057°42'917.8
2017-May-04 06:00S 19°47' E 057°40'918.6
2017-May-04 05:30S 19°54' E 057°34'918.9
2017-May-04 05:00S 20°03' E 057°30'611.7
2017-May-04 04:30S 20°08' E 057°29'1 1.7
2017-May-04 03:58S 20°08' E 057°30'0 0.0
2017-May-04 03:28S 20°08' E 057°30'0 0.0
2017-May-04 02:58S 20°08' E 057°30'0 0.0
2017-May-04 02:28S 20°08' E 057°30'0 0.0
2017-May-04 01:58S 20°08' E 057°30'0 0.0
2017-May-04 01:28S 20°08' E 057°30'0 0.0
2017-May-04 00:58S 20°08' E 057°30'0 0.0
2017-May-04 00:28S 20°08' E 057°30'0 0.0
2017-May-03 23:58S 20°08' E 057°30'0 0.0
2017-May-03 23:28S 20°08' E 057°30'0 0.0
2017-May-03 22:58S 20°08' E 057°30'0 0.0
2017-May-03 22:28S 20°08' E 057°30'0 0.0
2017-May-03 21:58S 20°08' E 057°30'0 0.0
2017-May-03 21:28S 20°08' E 057°30'0 0.0
2017-May-03 20:58S 20°08' E 057°30'0 0.0
2017-May-03 20:28S 20°08' E 057°30'0 0.0
2017-May-03 19:58S 20°08' E 057°30'0 0.0
2017-May-03 19:28S 20°08' E 057°30'0 0.0
2017-May-03 18:58S 20°08' E 057°30'0 0.0
2017-May-03 18:28S 20°08' E 057°30'0 0.0
2017-May-03 17:58S 20°08' E 057°30'0 0.0
2017-May-03 17:28S 20°08' E 057°30'0 0.1
2017-May-03 17:01S 20°08' E 057°29'2 3.3
2017-May-03 16:30S 20°08' E 057°28'2 3.7
2017-May-03 16:00S 20°07' E 057°26'0 0.4
2017-May-03 15:30S 20°07' E 057°26'0 0.8
2017-May-03 15:00S 20°07' E 057°26'8 8.3
2017-May-03 14:00S 20°05' E 057°17'0 0.8
2017-May-03 13:30S 20°04' E 057°18'0 0.7
2017-May-03 13:00S 20°04' E 057°18'0 0.5
2017-May-03 12:30S 20°04' E 057°18'0 0.7
2017-May-03 12:00S 20°04' E 057°19'0 0.7
2017-May-03 11:30S 20°04' E 057°19'0 0.7
2017-May-03 11:01S 20°04' E 057°19'0 0.8
2017-May-03 10:30S 20°04' E 057°20'0 0.8
2017-May-03 10:00S 20°04' E 057°20'0 0.8
2017-May-03 09:30S 20°04' E 057°21'0 0.5
2017-May-03 09:01S 20°04' E 057°21'0 0.2
2017-May-03 08:30S 20°04' E 057°21'0 0.2
2017-May-03 08:00S 20°05' E 057°21'0 0.5
2017-May-03 07:30S 20°04' E 057°21'0 0.8
2017-May-03 07:00S 20°04' E 057°22'0 0.9
2017-May-03 06:30S 20°04' E 057°22'0 0.3
2017-May-03 06:00S 20°04' E 057°22'0 0.3
2017-May-03 05:30S 20°04' E 057°22'0 0.3
2017-May-03 05:00S 20°05' E 057°22'0 0.3
2017-May-03 04:30S 20°05' E 057°22'0 0.7
2017-May-03 04:00S 20°05' E 057°22'0 0.8
2017-May-03 03:30S 20°05' E 057°22'0 0.3
2017-May-03 03:00S 20°05' E 057°22'0 0.2
2017-May-03 02:30S 20°05' E 057°22'0 0.4
2017-May-03 02:00S 20°06' E 057°22'4 7.1
2017-May-03 01:30S 20°07' E 057°18'510.9
2017-May-03 01:00S 20°09' E 057°13'612.3
2017-May-03 00:30S 20°11' E 057°07'612.2
2017-May-03 00:00S 20°13' E 057°00'  
Track history (hours):
 
Tides and Currents Weather Stations Pressure Air Temp Water Temp Dewpoint Dewpoint Depression Visibility Wind Speed Wind Dir Waves Ship Positions

Northern Power

Last reported at 2017-May-04 07:25 UTC. Time now 2017-May-29 02:02 UTC.
Position S 19°21' E 057°42'.
Warning: this ship's position is 24 days out of date.

Length 264 m; draft 11.2 m.

Type: Cargo ship. MMSI: 636091835.

Date/timePositionNaut miles runAvg speedWind from/ knotsBaromVisibWave heightAir tempDewpointWater temp
2017-May-04 07:25S 19°21' E 057°42'817.8
2017-May-04 07:00S 19°29' E 057°42'918.1
2017-May-04 06:31S 19°38' E 057°42'917.8
2017-May-04 06:00S 19°47' E 057°40'918.6
2017-May-04 05:30S 19°54' E 057°34'918.9
2017-May-04 05:00S 20°03' E 057°30'611.7
2017-May-04 04:30S 20°08' E 057°29'1 1.7
2017-May-04 03:58S 20°08' E 057°30'0 0.0
2017-May-04 03:28S 20°08' E 057°30'0 0.0
2017-May-04 02:58S 20°08' E 057°30'0 0.0
2017-May-04 02:28S 20°08' E 057°30'0 0.0
2017-May-04 01:58S 20°08' E 057°30'0 0.0
2017-May-04 01:28S 20°08' E 057°30'0 0.0
2017-May-04 00:58S 20°08' E 057°30'0 0.0
2017-May-04 00:28S 20°08' E 057°30'0 0.0
2017-May-03 23:58S 20°08' E 057°30'0 0.0
2017-May-03 23:28S 20°08' E 057°30'0 0.0
2017-May-03 22:58S 20°08' E 057°30'0 0.0
2017-May-03 22:28S 20°08' E 057°30'0 0.0
2017-May-03 21:58S 20°08' E 057°30'0 0.0
2017-May-03 21:28S 20°08' E 057°30'0 0.0
2017-May-03 20:58S 20°08' E 057°30'0 0.0
2017-May-03 20:28S 20°08' E 057°30'0 0.0
2017-May-03 19:58S 20°08' E 057°30'0 0.0
2017-May-03 19:28S 20°08' E 057°30'0 0.0
2017-May-03 18:58S 20°08' E 057°30'0 0.0
2017-May-03 18:28S 20°08' E 057°30'0 0.0
2017-May-03 17:58S 20°08' E 057°30'0 0.0
2017-May-03 17:28S 20°08' E 057°30'0 0.1
2017-May-03 17:01S 20°08' E 057°29'2 3.3
2017-May-03 16:30S 20°08' E 057°28'2 3.7
2017-May-03 16:00S 20°07' E 057°26'0 0.4
2017-May-03 15:30S 20°07' E 057°26'0 0.8
2017-May-03 15:00S 20°07' E 057°26'8 8.3
2017-May-03 14:00S 20°05' E 057°17'0 0.8
2017-May-03 13:30S 20°04' E 057°18'0 0.7
2017-May-03 13:00S 20°04' E 057°18'0 0.5
2017-May-03 12:30S 20°04' E 057°18'0 0.7
2017-May-03 12:00S 20°04' E 057°19'0 0.7
2017-May-03 11:30S 20°04' E 057°19'0 0.7
2017-May-03 11:01S 20°04' E 057°19'0 0.8
2017-May-03 10:30S 20°04' E 057°20'0 0.8
2017-May-03 10:00S 20°04' E 057°20'0 0.8
2017-May-03 09:30S 20°04' E 057°21'0 0.5
2017-May-03 09:01S 20°04' E 057°21'0 0.2
2017-May-03 08:30S 20°04' E 057°21'0 0.2
2017-May-03 08:00S 20°05' E 057°21'0 0.5
2017-May-03 07:30S 20°04' E 057°21'0 0.8
2017-May-03 07:00S 20°04' E 057°22'0 0.9
2017-May-03 06:30S 20°04' E 057°22'0 0.3
2017-May-03 06:00S 20°04' E 057°22'0 0.3
2017-May-03 05:30S 20°04' E 057°22'0 0.3
2017-May-03 05:00S 20°05' E 057°22'0 0.3
2017-May-03 04:30S 20°05' E 057°22'0 0.7
2017-May-03 04:00S 20°05' E 057°22'0 0.8
2017-May-03 03:30S 20°05' E 057°22'0 0.3
2017-May-03 03:00S 20°05' E 057°22'0 0.2
2017-May-03 02:30S 20°05' E 057°22'0 0.4
2017-May-03 02:00S 20°06' E 057°22'4 7.1
2017-May-03 01:30S 20°07' E 057°18'510.9
2017-May-03 01:00S 20°09' E 057°13'612.3
2017-May-03 00:30S 20°11' E 057°07'612.2
2017-May-03 00:00S 20°13' E 057°00'  

Dump ship's entire track history